PWSweather.com
Personal Weather Stations
Station Observations
KOHAVON11
Long Road Station, Avon, OH 44011

Long Road StationAvon, OH 44011

Lat: 41.437, Lon: -82.0477

Elevation: 686

Station Type: Davis Vantage Pro2

http://www.avon-weather.com

High Low Average
Temperature 41.3°F5.2°C 35.4°F1.9°C 37.8°F3.2°C
Dew Point 33.4°F0.8°C 22.6°F-5.2°C 26.5°F-3.1°C
Winds 24.0 mph 38.6 kmh Calm Calm 7.0 mph SW11.3 kmh SW
Wind Gusts 30.0 mph48.3 kmh -- 15.0 mph24.1 kmh
Humidity 80% 56% 64%
Pressure 30.09 in1019.0 mb 29.86 in1011.2 mb -
Precipitation 0.00 in0.0 mm - -
Hour Temp Dew Point Humidity Winds Wind Gusts Pressure Precip Precip Rate Daily Precip Total
12:03 AM 38.2°F3.4°C 24.0°F-4.4°C 57% 15.0 mph SW24.1 kmh SW 24.0 mph38.6 kmh 29.87 in1011.5 mb 0.00 in0.0 mm 0.00 in0.0 mm 0.00 in0.0 mm
12:08 AM 38.2°F3.4°C 24.0°F-4.4°C 57% 20.0 mph SW32.2 kmh SW 36.0 mph57.9 kmh 29.86 in1011.2 mb 0.00 in0.0 mm 0.00 in0.0 mm 0.00 in0.0 mm
12:13 AM 38.2°F3.4°C 24.0°F-4.4°C 57% 16.0 mph SW25.7 kmh SW 36.0 mph57.9 kmh 29.87 in1011.5 mb 0.00 in0.0 mm 0.00 in0.0 mm 0.00 in0.0 mm
12:18 AM 38.1°F3.4°C 23.9°F-4.5°C 57% 20.0 mph WSW32.2 kmh WSW 36.0 mph57.9 kmh 29.86 in1011.2 mb 0.00 in0.0 mm 0.00 in0.0 mm 0.00 in0.0 mm
12:23 AM 38.1°F3.4°C 23.9°F-4.5°C 57% 12.0 mph SW19.3 kmh SW 36.0 mph57.9 kmh 29.86 in1011.2 mb 0.00 in0.0 mm 0.00 in0.0 mm 0.00 in0.0 mm
12:28 AM 38.1°F3.4°C 23.9°F-4.5°C 57% 9.0 mph SW14.5 kmh SW 27.0 mph43.5 kmh 29.86 in1011.2 mb 0.00 in0.0 mm 0.00 in0.0 mm 0.00 in0.0 mm
12:33 AM 38.1°F3.4°C 23.9°F-4.5°C 57% 12.0 mph SW19.3 kmh SW 27.0 mph43.5 kmh 29.85 in1010.8 mb 0.00 in0.0 mm 0.00 in0.0 mm 0.00 in0.0 mm
12:38 AM 38.0°F3.3°C 23.8°F-4.6°C 57% 6.0 mph SW9.7 kmh SW 27.0 mph43.5 kmh 29.86 in1011.2 mb 0.00 in0.0 mm 0.00 in0.0 mm 0.00 in0.0 mm
12:43 AM 37.8°F3.2°C 23.7°F-4.6°C 57% 11.0 mph S17.7 kmh S 27.0 mph43.5 kmh 29.86 in1011.2 mb 0.00 in0.0 mm 0.00 in0.0 mm 0.00 in0.0 mm
12:48 AM 37.8°F3.2°C 23.7°F-4.6°C 57% 5.0 mph SW8.0 kmh SW 21.0 mph33.8 kmh 29.86 in1011.2 mb 0.00 in0.0 mm 0.00 in0.0 mm 0.00 in0.0 mm
12:53 AM 37.7°F3.2°C 23.6°F-4.7°C 57% 13.0 mph SW20.9 kmh SW 27.0 mph43.5 kmh 29.86 in1011.2 mb 0.00 in0.0 mm 0.00 in0.0 mm 0.00 in0.0 mm
12:58 AM 37.8°F3.2°C 23.7°F-4.6°C 57% 21.0 mph SW33.8 kmh SW 27.0 mph43.5 kmh 29.86 in1011.2 mb 0.00 in0.0 mm 0.00 in0.0 mm 0.00 in0.0 mm
01:03 AM 37.7°F3.2°C 23.6°F-4.7°C 57% 7.0 mph SSW11.3 kmh SSW 27.0 mph43.5 kmh 29.86 in1011.2 mb 0.00 in0.0 mm 0.00 in0.0 mm 0.00 in0.0 mm
01:08 AM 37.7°F3.2°C 23.6°F-4.7°C 57% 9.0 mph SW14.5 kmh SW 27.0 mph43.5 kmh 29.86 in1011.2 mb 0.00 in0.0 mm 0.00 in0.0 mm 0.00 in0.0 mm
01:13 AM 37.6°F3.1°C 23.0°F-5.0°C 56% 14.0 mph SSW22.5 kmh SSW 30.0 mph48.3 kmh 29.86 in1011.2 mb 0.00 in0.0 mm 0.00 in0.0 mm 0.00 in0.0 mm
01:18 AM 37.6°F3.1°C 23.0°F-5.0°C 56% 16.0 mph SW25.7 kmh SW 30.0 mph48.3 kmh 29.86 in1011.2 mb 0.00 in0.0 mm 0.00 in0.0 mm 0.00 in0.0 mm
01:23 AM 37.5°F3.1°C 22.9°F-5.1°C 56% 10.0 mph SSW16.1 kmh SSW 30.0 mph48.3 kmh 29.86 in1011.2 mb 0.00 in0.0 mm 0.00 in0.0 mm 0.00 in0.0 mm
01:28 AM 37.4°F3.0°C 22.9°F-5.1°C 56% 21.0 mph SW33.8 kmh SW 30.0 mph48.3 kmh 29.87 in1011.5 mb 0.00 in0.0 mm 0.00 in0.0 mm 0.00 in0.0 mm
01:33 AM 37.3°F2.9°C 22.8°F-5.1°C 56% 14.0 mph SW22.5 kmh SW 30.0 mph48.3 kmh 29.86 in1011.2 mb 0.00 in0.0 mm 0.00 in0.0 mm 0.00 in0.0 mm
01:38 AM 37.2°F2.9°C 22.7°F-5.2°C 56% 23.0 mph SW37.0 kmh SW 30.0 mph48.3 kmh 29.86 in1011.2 mb 0.00 in0.0 mm 0.00 in0.0 mm 0.00 in0.0 mm
01:43 AM 37.1°F2.8°C 22.6°F-5.2°C 56% 15.0 mph SW24.1 kmh SW 30.0 mph48.3 kmh 29.86 in1011.2 mb 0.00 in0.0 mm 0.00 in0.0 mm 0.00 in0.0 mm
01:48 AM 37.0°F2.8°C 22.9°F-5.1°C 57% 17.0 mph WSW27.4 kmh WSW 26.0 mph41.8 kmh 29.86 in1011.2 mb 0.00 in0.0 mm 0.00 in0.0 mm 0.00 in0.0 mm
01:53 AM 36.9°F2.7°C 22.8°F-5.1°C 57% 14.0 mph SW22.5 kmh SW 26.0 mph41.8 kmh 29.86 in1011.2 mb 0.00 in0.0 mm 0.00 in0.0 mm 0.00 in0.0 mm
01:58 AM 36.8°F2.7°C 22.7°F-5.2°C 57% 19.0 mph SW30.6 kmh SW 22.0 mph35.4 kmh 29.87 in1011.5 mb 0.00 in0.0 mm 0.00 in0.0 mm 0.00 in0.0 mm
02:03 AM 36.8°F2.7°C 22.7°F-5.2°C 57% 11.0 mph SW17.7 kmh SW 23.0 mph37.0 kmh 29.87 in1011.5 mb 0.00 in0.0 mm 0.00 in0.0 mm 0.00 in0.0 mm
02:08 AM 36.7°F2.6°C 22.6°F-5.2°C 57% 16.0 mph SW25.7 kmh SW 23.0 mph37.0 kmh 29.87 in1011.5 mb 0.00 in0.0 mm 0.00 in0.0 mm 0.00 in0.0 mm
02:13 AM 36.7°F2.6°C 22.6°F-5.2°C 57% 12.0 mph SW19.3 kmh SW 26.0 mph41.8 kmh 29.87 in1011.5 mb 0.00 in0.0 mm 0.00 in0.0 mm 0.00 in0.0 mm
02:18 AM 36.5°F2.5°C 22.9°F-5.1°C 58% 14.0 mph SW22.5 kmh SW 26.0 mph41.8 kmh 29.87 in1011.5 mb 0.00 in0.0 mm 0.00 in0.0 mm 0.00 in0.0 mm
02:23 AM 36.5°F2.5°C 22.9°F-5.1°C 58% 10.0 mph SW16.1 kmh SW 26.0 mph41.8 kmh 29.87 in1011.5 mb 0.00 in0.0 mm 0.00 in0.0 mm 0.00 in0.0 mm
02:28 AM 36.4°F2.4°C 22.8°F-5.1°C 58% 17.0 mph SW27.4 kmh SW 26.0 mph41.8 kmh 29.87 in1011.5 mb 0.00 in0.0 mm 0.00 in0.0 mm 0.00 in0.0 mm
02:33 AM 36.3°F2.4°C 23.1°F-4.9°C 59% 18.0 mph SW29.0 kmh SW 24.0 mph38.6 kmh 29.88 in1011.9 mb 0.00 in0.0 mm 0.00 in0.0 mm 0.00 in0.0 mm
02:38 AM 36.2°F2.3°C 23.0°F-5.0°C 59% 9.0 mph SW14.5 kmh SW 24.0 mph38.6 kmh 29.88 in1011.9 mb 0.00 in0.0 mm 0.00 in0.0 mm 0.00 in0.0 mm
02:43 AM 36.1°F2.3°C 23.3°F-4.8°C 60% 14.0 mph SW22.5 kmh SW 22.0 mph35.4 kmh 29.88 in1011.9 mb 0.00 in0.0 mm 0.00 in0.0 mm 0.00 in0.0 mm
02:48 AM 36.0°F2.2°C 23.2°F-4.9°C 60% 9.0 mph SW14.5 kmh SW 22.0 mph35.4 kmh 29.88 in1011.9 mb 0.00 in0.0 mm 0.00 in0.0 mm 0.00 in0.0 mm
02:53 AM 35.9°F2.2°C 23.6°F-4.7°C 61% 17.0 mph SW27.4 kmh SW 18.0 mph29.0 kmh 29.89 in1012.2 mb 0.00 in0.0 mm 0.00 in0.0 mm 0.00 in0.0 mm
02:58 AM 35.9°F2.2°C 23.6°F-4.7°C 61% 13.0 mph SW20.9 kmh SW 20.0 mph32.2 kmh 29.89 in1012.2 mb 0.00 in0.0 mm 0.00 in0.0 mm 0.00 in0.0 mm
03:03 AM 35.9°F2.2°C 23.6°F-4.7°C 61% 11.0 mph SW17.7 kmh SW 20.0 mph32.2 kmh 29.89 in1012.2 mb 0.00 in0.0 mm 0.00 in0.0 mm 0.00 in0.0 mm
03:08 AM 35.8°F2.1°C 23.5°F-4.7°C 61% 12.0 mph SW19.3 kmh SW 20.0 mph32.2 kmh 29.89 in1012.2 mb 0.00 in0.0 mm 0.00 in0.0 mm 0.00 in0.0 mm
03:13 AM 35.7°F2.1°C 23.8°F-4.6°C 62% 10.0 mph SW16.1 kmh SW 20.0 mph32.2 kmh 29.89 in1012.2 mb 0.00 in0.0 mm 0.00 in0.0 mm 0.00 in0.0 mm
03:18 AM 35.7°F2.1°C 23.8°F-4.6°C 62% 12.0 mph SW19.3 kmh SW 19.0 mph30.6 kmh 29.89 in1012.2 mb 0.00 in0.0 mm 0.00 in0.0 mm 0.00 in0.0 mm
03:23 AM 35.7°F2.1°C 23.8°F-4.6°C 62% 15.0 mph SW24.1 kmh SW 19.0 mph30.6 kmh 29.89 in1012.2 mb 0.00 in0.0 mm 0.00 in0.0 mm 0.00 in0.0 mm
03:28 AM 35.7°F2.1°C 23.8°F-4.6°C 62% 10.0 mph SW16.1 kmh SW 19.0 mph30.6 kmh 29.89 in1012.2 mb 0.00 in0.0 mm 0.00 in0.0 mm 0.00 in0.0 mm
03:33 AM 35.7°F2.1°C 23.8°F-4.6°C 62% 11.0 mph SW17.7 kmh SW 20.0 mph32.2 kmh 29.89 in1012.2 mb 0.00 in0.0 mm 0.00 in0.0 mm 0.00 in0.0 mm
03:38 AM 35.8°F2.1°C 23.9°F-4.5°C 62% 14.0 mph SW22.5 kmh SW 21.0 mph33.8 kmh 29.89 in1012.2 mb 0.00 in0.0 mm 0.00 in0.0 mm 0.00 in0.0 mm
03:43 AM 35.9°F2.2°C 24.0°F-4.4°C 62% 18.0 mph SW29.0 kmh SW 23.0 mph37.0 kmh 29.89 in1012.2 mb 0.00 in0.0 mm 0.00 in0.0 mm 0.00 in0.0 mm
03:48 AM 36.0°F2.2°C 24.0°F-4.4°C 62% 13.0 mph SW20.9 kmh SW 24.0 mph38.6 kmh 29.89 in1012.2 mb 0.00 in0.0 mm 0.00 in0.0 mm 0.00 in0.0 mm
03:53 AM 35.9°F2.2°C 24.0°F-4.4°C 62% 17.0 mph SW27.4 kmh SW 24.0 mph38.6 kmh 29.89 in1012.2 mb 0.00 in0.0 mm 0.00 in0.0 mm 0.00 in0.0 mm
03:58 AM 35.9°F2.2°C 24.0°F-4.4°C 62% 6.0 mph SW9.7 kmh SW 25.0 mph40.2 kmh 29.89 in1012.2 mb 0.00 in0.0 mm 0.00 in0.0 mm 0.00 in0.0 mm
04:03 AM 36.0°F2.2°C 24.0°F-4.4°C 62% 8.0 mph S12.9 kmh S 25.0 mph40.2 kmh 29.90 in1012.5 mb 0.00 in0.0 mm 0.00 in0.0 mm 0.00 in0.0 mm
04:08 AM 36.0°F2.2°C 24.0°F-4.4°C 62% 7.0 mph SW11.3 kmh SW 25.0 mph40.2 kmh 29.90 in1012.5 mb 0.00 in0.0 mm 0.00 in0.0 mm 0.00 in0.0 mm
04:13 AM 35.9°F2.2°C 24.0°F-4.4°C 62% 10.0 mph SW16.1 kmh SW 25.0 mph40.2 kmh 29.90 in1012.5 mb 0.00 in0.0 mm 0.00 in0.0 mm 0.00 in0.0 mm
04:18 AM 35.8°F2.1°C 23.9°F-4.5°C 62% 8.0 mph SW12.9 kmh SW 18.0 mph29.0 kmh 29.90 in1012.5 mb 0.00 in0.0 mm 0.00 in0.0 mm 0.00 in0.0 mm
04:23 AM 35.8°F2.1°C 24.3°F-4.3°C 63% 7.0 mph SW11.3 kmh SW 24.0 mph38.6 kmh 29.90 in1012.5 mb 0.00 in0.0 mm 0.00 in0.0 mm 0.00 in0.0 mm
04:28 AM 35.9°F2.2°C 24.0°F-4.4°C 62% 7.0 mph SW11.3 kmh SW 24.0 mph38.6 kmh 29.90 in1012.5 mb 0.00 in0.0 mm 0.00 in0.0 mm 0.00 in0.0 mm
04:33 AM 36.0°F2.2°C 24.0°F-4.4°C 62% 13.0 mph WSW20.9 kmh WSW 24.0 mph38.6 kmh 29.90 in1012.5 mb 0.00 in0.0 mm 0.00 in0.0 mm 0.00 in0.0 mm
04:38 AM 36.0°F2.2°C 24.0°F-4.4°C 62% 10.0 mph SSW16.1 kmh SSW 24.0 mph38.6 kmh 29.90 in1012.5 mb 0.00 in0.0 mm 0.00 in0.0 mm 0.00 in0.0 mm
04:43 AM 35.9°F2.2°C 24.0°F-4.4°C 62% 6.0 mph SSW9.7 kmh SSW 25.0 mph40.2 kmh 29.90 in1012.5 mb 0.00 in0.0 mm 0.00 in0.0 mm 0.00 in0.0 mm
04:48 AM 35.9°F2.2°C 24.0°F-4.4°C 62% 4.0 mph SW6.4 kmh SW 25.0 mph40.2 kmh 29.90 in1012.5 mb 0.00 in0.0 mm 0.00 in0.0 mm 0.00 in0.0 mm
04:53 AM 35.9°F2.2°C 24.0°F-4.4°C 62% 5.0 mph SW8.0 kmh SW 25.0 mph40.2 kmh 29.89 in1012.2 mb 0.00 in0.0 mm 0.00 in0.0 mm 0.00 in0.0 mm
04:58 AM 35.8°F2.1°C 23.9°F-4.5°C 62% 10.0 mph S16.1 kmh S 25.0 mph40.2 kmh 29.90 in1012.5 mb 0.00 in0.0 mm 0.00 in0.0 mm 0.00 in0.0 mm
05:03 AM 35.8°F2.1°C 23.9°F-4.5°C 62% 12.0 mph WSW19.3 kmh WSW 19.0 mph30.6 kmh 29.90 in1012.5 mb 0.00 in0.0 mm 0.00 in0.0 mm 0.00 in0.0 mm
05:08 AM 35.8°F2.1°C 23.9°F-4.5°C 62% 8.0 mph SSW12.9 kmh SSW 19.0 mph30.6 kmh 29.89 in1012.2 mb 0.00 in0.0 mm 0.00 in0.0 mm 0.00 in0.0 mm
05:13 AM 35.8°F2.1°C 23.9°F-4.5°C 62% 4.0 mph SW6.4 kmh SW 20.0 mph32.2 kmh 29.90 in1012.5 mb 0.00 in0.0 mm 0.00 in0.0 mm 0.00 in0.0 mm
05:18 AM 35.7°F2.1°C 23.8°F-4.6°C 62% 6.0 mph SW9.7 kmh SW 23.0 mph37.0 kmh 29.90 in1012.5 mb 0.00 in0.0 mm 0.00 in0.0 mm 0.00 in0.0 mm
05:23 AM 35.7°F2.1°C 24.2°F-4.3°C 63% 5.0 mph S8.0 kmh S 23.0 mph37.0 kmh 29.90 in1012.5 mb 0.00 in0.0 mm 0.00 in0.0 mm 0.00 in0.0 mm
05:28 AM 35.8°F2.1°C 23.9°F-4.5°C 62% 7.0 mph SSW11.3 kmh SSW 25.0 mph40.2 kmh 29.90 in1012.5 mb 0.00 in0.0 mm 0.00 in0.0 mm 0.00 in0.0 mm
05:33 AM 35.8°F2.1°C 24.3°F-4.3°C 63% 11.0 mph S17.7 kmh S 25.0 mph40.2 kmh 29.89 in1012.2 mb 0.00 in0.0 mm 0.00 in0.0 mm 0.00 in0.0 mm
05:38 AM 35.8°F2.1°C 24.3°F-4.3°C 63% 4.0 mph SW6.4 kmh SW 25.0 mph40.2 kmh 29.90 in1012.5 mb 0.00 in0.0 mm 0.00 in0.0 mm 0.00 in0.0 mm
05:43 AM 35.8°F2.1°C 23.9°F-4.5°C 62% 6.0 mph SW9.7 kmh SW 25.0 mph40.2 kmh 29.90 in1012.5 mb 0.00 in0.0 mm 0.00 in0.0 mm 0.00 in0.0 mm
05:48 AM 35.8°F2.1°C 23.9°F-4.5°C 62% 20.0 mph S32.2 kmh S 22.0 mph35.4 kmh 29.89 in1012.2 mb 0.00 in0.0 mm 0.00 in0.0 mm 0.00 in0.0 mm
05:53 AM 35.8°F2.1°C 23.9°F-4.5°C 62% 7.0 mph SSW11.3 kmh SSW 26.0 mph41.8 kmh 29.89 in1012.2 mb 0.00 in0.0 mm 0.00 in0.0 mm 0.00 in0.0 mm
05:58 AM 35.9°F2.2°C 24.0°F-4.4°C 62% 24.0 mph S38.6 kmh S 26.0 mph41.8 kmh 29.90 in1012.5 mb 0.00 in0.0 mm 0.00 in0.0 mm 0.00 in0.0 mm
06:03 AM 36.0°F2.2°C 24.0°F-4.4°C 62% 7.0 mph SW11.3 kmh SW 26.0 mph41.8 kmh 29.90 in1012.5 mb 0.00 in0.0 mm 0.00 in0.0 mm 0.00 in0.0 mm
06:08 AM 35.9°F2.2°C 24.0°F-4.4°C 62% 11.0 mph SSW17.7 kmh SSW 26.0 mph41.8 kmh 29.90 in1012.5 mb 0.00 in0.0 mm 0.00 in0.0 mm 0.00 in0.0 mm
06:13 AM 35.8°F2.1°C 23.9°F-4.5°C 62% 8.0 mph SW12.9 kmh SW 17.0 mph27.4 kmh 29.91 in1012.9 mb 0.00 in0.0 mm 0.00 in0.0 mm 0.00 in0.0 mm
06:18 AM 35.8°F2.1°C 23.9°F-4.5°C 62% 9.0 mph SW14.5 kmh SW 17.0 mph27.4 kmh 29.91 in1012.9 mb 0.00 in0.0 mm 0.00 in0.0 mm 0.00 in0.0 mm
06:23 AM 35.7°F2.1°C 23.8°F-4.6°C 62% 13.0 mph SSW20.9 kmh SSW 18.0 mph29.0 kmh 29.91 in1012.9 mb 0.00 in0.0 mm 0.00 in0.0 mm 0.00 in0.0 mm
06:28 AM 35.7°F2.1°C 23.8°F-4.6°C 62% 4.0 mph SW6.4 kmh SW 18.0 mph29.0 kmh 29.91 in1012.9 mb 0.00 in0.0 mm 0.00 in0.0 mm 0.00 in0.0 mm
06:33 AM 35.7°F2.1°C 23.8°F-4.6°C 62% 5.0 mph SW8.0 kmh SW 22.0 mph35.4 kmh 29.91 in1012.9 mb 0.00 in0.0 mm 0.00 in0.0 mm 0.00 in0.0 mm
06:38 AM 35.7°F2.1°C 23.8°F-4.6°C 62% 4.0 mph SW6.4 kmh SW 22.0 mph35.4 kmh 29.92 in1013.2 mb 0.00 in0.0 mm 0.00 in0.0 mm 0.00 in0.0 mm
06:43 AM 35.6°F2.0°C 23.7°F-4.6°C 62% 6.0 mph SW9.7 kmh SW 22.0 mph35.4 kmh 29.92 in1013.2 mb 0.00 in0.0 mm 0.00 in0.0 mm 0.00 in0.0 mm
06:48 AM 35.6°F2.0°C 23.7°F-4.6°C 62% 3.0 mph SW4.8 kmh SW 22.0 mph35.4 kmh 29.93 in1013.5 mb 0.00 in0.0 mm 0.00 in0.0 mm 0.00 in0.0 mm
06:53 AM 35.6°F2.0°C 23.7°F-4.6°C 62% 5.0 mph SSW8.0 kmh SSW 17.0 mph27.4 kmh 29.93 in1013.5 mb 0.00 in0.0 mm 0.00 in0.0 mm 0.00 in0.0 mm
06:58 AM 35.5°F1.9°C 24.0°F-4.4°C 63% 5.0 mph SW8.0 kmh SW 17.0 mph27.4 kmh 29.93 in1013.5 mb 0.00 in0.0 mm 0.00 in0.0 mm 0.00 in0.0 mm
07:03 AM 35.5°F1.9°C 24.0°F-4.4°C 63% 7.0 mph SSW11.3 kmh SSW 15.0 mph24.1 kmh 29.93 in1013.5 mb 0.00 in0.0 mm 0.00 in0.0 mm 0.00 in0.0 mm
07:08 AM 35.5°F1.9°C 23.6°F-4.7°C 62% 13.0 mph SW20.9 kmh SW 16.0 mph25.7 kmh 29.93 in1013.5 mb 0.00 in0.0 mm 0.00 in0.0 mm 0.00 in0.0 mm
07:13 AM 35.5°F1.9°C 23.6°F-4.7°C 62% 7.0 mph SW11.3 kmh SW 18.0 mph29.0 kmh 29.93 in1013.5 mb 0.00 in0.0 mm 0.00 in0.0 mm 0.00 in0.0 mm
07:18 AM 35.5°F1.9°C 24.0°F-4.4°C 63% 13.0 mph SW20.9 kmh SW 18.0 mph29.0 kmh 29.93 in1013.5 mb 0.00 in0.0 mm 0.00 in0.0 mm 0.00 in0.0 mm
07:23 AM 35.4°F1.9°C 23.9°F-4.5°C 63% 10.0 mph SSW16.1 kmh SSW 18.0 mph29.0 kmh 29.93 in1013.5 mb 0.00 in0.0 mm 0.00 in0.0 mm 0.00 in0.0 mm
07:28 AM 35.4°F1.9°C 23.9°F-4.5°C 63% 6.0 mph WSW9.7 kmh WSW 20.0 mph32.2 kmh 29.94 in1013.9 mb 0.00 in0.0 mm 0.00 in0.0 mm 0.00 in0.0 mm
07:33 AM 35.4°F1.9°C 23.9°F-4.5°C 63% 10.0 mph WSW16.1 kmh WSW 20.0 mph32.2 kmh 29.93 in1013.5 mb 0.00 in0.0 mm 0.00 in0.0 mm 0.00 in0.0 mm
07:38 AM 35.4°F1.9°C 23.9°F-4.5°C 63% 10.0 mph SW16.1 kmh SW 20.0 mph32.2 kmh 29.93 in1013.5 mb 0.00 in0.0 mm 0.00 in0.0 mm 0.00 in0.0 mm
07:43 AM 35.5°F1.9°C 24.0°F-4.4°C 63% 7.0 mph SW11.3 kmh SW 20.0 mph32.2 kmh 29.94 in1013.9 mb 0.00 in0.0 mm 0.00 in0.0 mm 0.00 in0.0 mm
07:48 AM 35.6°F2.0°C 24.1°F-4.4°C 63% 9.0 mph SW14.5 kmh SW 18.0 mph29.0 kmh 29.94 in1013.9 mb 0.00 in0.0 mm 0.00 in0.0 mm 0.00 in0.0 mm
07:53 AM 35.8°F2.1°C 24.3°F-4.3°C 63% 9.0 mph SW14.5 kmh SW 18.0 mph29.0 kmh 29.94 in1013.9 mb 0.00 in0.0 mm 0.00 in0.0 mm 0.00 in0.0 mm
07:58 AM 35.9°F2.2°C 24.0°F-4.4°C 62% 12.0 mph SW19.3 kmh SW 17.0 mph27.4 kmh 29.94 in1013.9 mb 0.00 in0.0 mm 0.00 in0.0 mm 0.00 in0.0 mm
08:03 AM 36.0°F2.2°C 24.0°F-4.4°C 62% 12.0 mph SW19.3 kmh SW 20.0 mph32.2 kmh 29.94 in1013.9 mb 0.00 in0.0 mm 0.00 in0.0 mm 0.00 in0.0 mm
08:08 AM 36.0°F2.2°C 24.0°F-4.4°C 62% 10.0 mph WSW16.1 kmh WSW 20.0 mph32.2 kmh 29.95 in1014.2 mb 0.00 in0.0 mm 0.00 in0.0 mm 0.00 in0.0 mm
08:13 AM 35.9°F2.2°C 24.0°F-4.4°C 62% 10.0 mph SW16.1 kmh SW 20.0 mph32.2 kmh 29.95 in1014.2 mb 0.00 in0.0 mm 0.00 in0.0 mm 0.00 in0.0 mm
08:18 AM 35.8°F2.1°C 23.9°F-4.5°C 62% 11.0 mph SW17.7 kmh SW 20.0 mph32.2 kmh 29.95 in1014.2 mb 0.00 in0.0 mm 0.00 in0.0 mm 0.00 in0.0 mm
08:23 AM 35.7°F2.1°C 23.8°F-4.6°C 62% 8.0 mph WSW12.9 kmh WSW 16.0 mph25.7 kmh 29.95 in1014.2 mb 0.00 in0.0 mm 0.00 in0.0 mm 0.00 in0.0 mm
08:28 AM 35.7°F2.1°C 24.2°F-4.3°C 63% 13.0 mph SW20.9 kmh SW 17.0 mph27.4 kmh 29.95 in1014.2 mb 0.00 in0.0 mm 0.00 in0.0 mm 0.00 in0.0 mm
08:33 AM 35.7°F2.1°C 24.2°F-4.3°C 63% 12.0 mph WSW19.3 kmh WSW 17.0 mph27.4 kmh 29.95 in1014.2 mb 0.00 in0.0 mm 0.00 in0.0 mm 0.00 in0.0 mm
08:38 AM 35.6°F2.0°C 24.1°F-4.4°C 63% 10.0 mph WSW16.1 kmh WSW 18.0 mph29.0 kmh 29.95 in1014.2 mb 0.00 in0.0 mm 0.00 in0.0 mm 0.00 in0.0 mm
08:43 AM 35.6°F2.0°C 24.1°F-4.4°C 63% 10.0 mph WSW16.1 kmh WSW 18.0 mph29.0 kmh 29.96 in1014.6 mb 0.00 in0.0 mm 0.00 in0.0 mm 0.00 in0.0 mm
08:48 AM 35.6°F2.0°C 24.1°F-4.4°C 63% 9.0 mph SW14.5 kmh SW 18.0 mph29.0 kmh 29.95 in1014.2 mb 0.00 in0.0 mm 0.00 in0.0 mm 0.00 in0.0 mm
08:53 AM 35.6°F2.0°C 24.1°F-4.4°C 63% 11.0 mph SW17.7 kmh SW 18.0 mph29.0 kmh 29.95 in1014.2 mb 0.00 in0.0 mm 0.00 in0.0 mm 0.00 in0.0 mm
08:58 AM 35.6°F2.0°C 24.1°F-4.4°C 63% 12.0 mph SW19.3 kmh SW 17.0 mph27.4 kmh 29.96 in1014.6 mb 0.00 in0.0 mm 0.00 in0.0 mm 0.00 in0.0 mm
09:03 AM 35.6°F2.0°C 24.1°F-4.4°C 63% 13.0 mph WSW20.9 kmh WSW 17.0 mph27.4 kmh 29.96 in1014.6 mb 0.00 in0.0 mm 0.00 in0.0 mm 0.00 in0.0 mm
09:08 AM 35.7°F2.1°C 24.2°F-4.3°C 63% 15.0 mph WSW24.1 kmh WSW 16.0 mph25.7 kmh 29.96 in1014.6 mb 0.00 in0.0 mm 0.00 in0.0 mm 0.00 in0.0 mm
09:13 AM 35.7°F2.1°C 24.2°F-4.3°C 63% 13.0 mph WSW20.9 kmh WSW 19.0 mph30.6 kmh 29.97 in1014.9 mb 0.00 in0.0 mm 0.00 in0.0 mm 0.00 in0.0 mm
09:18 AM 35.8°F2.1°C 24.3°F-4.3°C 63% 16.0 mph SW25.7 kmh SW 19.0 mph30.6 kmh 29.96 in1014.6 mb 0.00 in0.0 mm 0.00 in0.0 mm 0.00 in0.0 mm
09:23 AM 35.8°F2.1°C 24.3°F-4.3°C 63% 12.0 mph WSW19.3 kmh WSW 19.0 mph30.6 kmh 29.96 in1014.6 mb 0.00 in0.0 mm 0.00 in0.0 mm 0.00 in0.0 mm
09:28 AM 35.8°F2.1°C 24.3°F-4.3°C 63% 11.0 mph SW17.7 kmh SW 19.0 mph30.6 kmh 29.96 in1014.6 mb 0.00 in0.0 mm 0.00 in0.0 mm 0.00 in0.0 mm
09:33 AM 35.8°F2.1°C 24.3°F-4.3°C 63% 12.0 mph SW19.3 kmh SW 19.0 mph30.6 kmh 29.96 in1014.6 mb 0.00 in0.0 mm 0.00 in0.0 mm 0.00 in0.0 mm
09:38 AM 35.9°F2.2°C 24.3°F-4.3°C 63% 10.0 mph WSW16.1 kmh WSW 20.0 mph32.2 kmh 29.97 in1014.9 mb 0.00 in0.0 mm 0.00 in0.0 mm 0.00 in0.0 mm
09:43 AM 35.9°F2.2°C 24.3°F-4.3°C 63% 14.0 mph SW22.5 kmh SW 20.0 mph32.2 kmh 29.97 in1014.9 mb 0.00 in0.0 mm 0.00 in0.0 mm 0.00 in0.0 mm
09:48 AM 36.0°F2.2°C 24.4°F-4.2°C 63% 12.0 mph WSW19.3 kmh WSW 20.0 mph32.2 kmh 29.97 in1014.9 mb 0.00 in0.0 mm 0.00 in0.0 mm 0.00 in0.0 mm
09:53 AM 35.9°F2.2°C 24.3°F-4.3°C 63% 12.0 mph WSW19.3 kmh WSW 20.0 mph32.2 kmh 29.98 in1015.2 mb 0.00 in0.0 mm 0.00 in0.0 mm 0.00 in0.0 mm
09:58 AM 35.9°F2.2°C 24.3°F-4.3°C 63% 15.0 mph SW24.1 kmh SW 20.0 mph32.2 kmh 29.98 in1015.2 mb 0.00 in0.0 mm 0.00 in0.0 mm 0.00 in0.0 mm
10:03 AM 36.2°F2.3°C 24.6°F-4.1°C 63% 10.0 mph SW16.1 kmh SW 20.0 mph32.2 kmh 29.98 in1015.2 mb 0.00 in0.0 mm 0.00 in0.0 mm 0.00 in0.0 mm
10:08 AM 36.4°F2.4°C 24.8°F-4.0°C 63% 13.0 mph SW20.9 kmh SW 20.0 mph32.2 kmh 29.98 in1015.2 mb 0.00 in0.0 mm 0.00 in0.0 mm 0.00 in0.0 mm
10:13 AM 36.6°F2.6°C 25.0°F-3.9°C 63% 7.0 mph SW11.3 kmh SW 20.0 mph32.2 kmh 29.98 in1015.2 mb 0.00 in0.0 mm 0.00 in0.0 mm 0.00 in0.0 mm
10:18 AM 36.8°F2.7°C 24.8°F-4.0°C 62% 15.0 mph WSW24.1 kmh WSW 20.0 mph32.2 kmh 29.98 in1015.2 mb 0.00 in0.0 mm 0.00 in0.0 mm 0.00 in0.0 mm
10:23 AM 37.1°F2.8°C 25.1°F-3.8°C 62% 13.0 mph WSW20.9 kmh WSW 21.0 mph33.8 kmh 29.98 in1015.2 mb 0.00 in0.0 mm 0.00 in0.0 mm 0.00 in0.0 mm
10:28 AM 37.3°F2.9°C 25.3°F-3.7°C 62% 9.0 mph SW14.5 kmh SW 22.0 mph35.4 kmh 29.97 in1014.9 mb 0.00 in0.0 mm 0.00 in0.0 mm 0.00 in0.0 mm
10:33 AM 37.4°F3.0°C 25.4°F-3.7°C 62% 21.0 mph SW33.8 kmh SW 22.0 mph35.4 kmh 29.98 in1015.2 mb 0.00 in0.0 mm 0.00 in0.0 mm 0.00 in0.0 mm
10:38 AM 37.5°F3.1°C 25.5°F-3.6°C 62% 13.0 mph SW20.9 kmh SW 22.0 mph35.4 kmh 29.99 in1015.6 mb 0.00 in0.0 mm 0.00 in0.0 mm 0.00 in0.0 mm
10:43 AM 37.5°F3.1°C 25.1°F-3.8°C 61% 17.0 mph SW27.4 kmh SW 22.0 mph35.4 kmh 29.99 in1015.6 mb 0.00 in0.0 mm 0.00 in0.0 mm 0.00 in0.0 mm
10:48 AM 37.6°F3.1°C 25.6°F-3.6°C 62% 14.0 mph SW22.5 kmh SW 23.0 mph37.0 kmh 29.99 in1015.6 mb 0.00 in0.0 mm 0.00 in0.0 mm 0.00 in0.0 mm
10:53 AM 37.8°F3.2°C 25.7°F-3.5°C 62% 15.0 mph WSW24.1 kmh WSW 23.0 mph37.0 kmh 29.99 in1015.6 mb 0.00 in0.0 mm 0.00 in0.0 mm 0.00 in0.0 mm
10:58 AM 37.9°F3.3°C 25.8°F-3.4°C 62% 15.0 mph SW24.1 kmh SW 23.0 mph37.0 kmh 30.00 in1015.9 mb 0.00 in0.0 mm 0.00 in0.0 mm 0.00 in0.0 mm
11:03 AM 38.0°F3.3°C 25.9°F-3.4°C 62% 13.0 mph WSW20.9 kmh WSW 23.0 mph37.0 kmh 30.00 in1015.9 mb 0.00 in0.0 mm 0.00 in0.0 mm 0.00 in0.0 mm
11:08 AM 38.3°F3.5°C 25.8°F-3.4°C 61% 17.0 mph SW27.4 kmh SW 20.0 mph32.2 kmh 30.00 in1015.9 mb 0.00 in0.0 mm 0.00 in0.0 mm 0.00 in0.0 mm
11:13 AM 38.4°F3.6°C 25.9°F-3.4°C 61% 13.0 mph SW20.9 kmh SW 20.0 mph32.2 kmh 30.00 in1015.9 mb 0.00 in0.0 mm 0.00 in0.0 mm 0.00 in0.0 mm
11:18 AM 38.5°F3.6°C 26.0°F-3.3°C 61% 11.0 mph SW17.7 kmh SW 20.0 mph32.2 kmh 30.00 in1015.9 mb 0.00 in0.0 mm 0.00 in0.0 mm 0.00 in0.0 mm
11:23 AM 38.6°F3.7°C 26.1°F-3.3°C 61% 12.0 mph SW19.3 kmh SW 20.0 mph32.2 kmh 30.01 in1016.3 mb 0.00 in0.0 mm 0.00 in0.0 mm 0.00 in0.0 mm
11:28 AM 38.6°F3.7°C 26.1°F-3.3°C 61% 10.0 mph SSW16.1 kmh SSW 20.0 mph32.2 kmh 30.01 in1016.3 mb 0.00 in0.0 mm 0.00 in0.0 mm 0.00 in0.0 mm
11:33 AM 38.6°F3.7°C 26.1°F-3.3°C 61% 14.0 mph SW22.5 kmh SW 19.0 mph30.6 kmh 30.01 in1016.3 mb 0.00 in0.0 mm 0.00 in0.0 mm 0.00 in0.0 mm
11:38 AM 38.7°F3.7°C 26.2°F-3.2°C 61% 13.0 mph SW20.9 kmh SW 23.0 mph37.0 kmh 30.01 in1016.3 mb 0.00 in0.0 mm 0.00 in0.0 mm 0.00 in0.0 mm
11:43 AM 38.8°F3.8°C 26.3°F-3.2°C 61% 12.0 mph SW19.3 kmh SW 23.0 mph37.0 kmh 30.01 in1016.3 mb 0.00 in0.0 mm 0.00 in0.0 mm 0.00 in0.0 mm
11:48 AM 38.8°F3.8°C 26.3°F-3.2°C 61% 14.0 mph WSW22.5 kmh WSW 23.0 mph37.0 kmh 30.01 in1016.3 mb 0.00 in0.0 mm 0.00 in0.0 mm 0.00 in0.0 mm
11:53 AM 38.6°F3.7°C 26.1°F-3.3°C 61% 17.0 mph SW27.4 kmh SW 23.0 mph37.0 kmh 30.02 in1016.6 mb 0.00 in0.0 mm 0.00 in0.0 mm 0.00 in0.0 mm
11:58 AM 38.5°F3.6°C 26.0°F-3.3°C 61% 9.0 mph WSW14.5 kmh WSW 21.0 mph33.8 kmh 30.02 in1016.6 mb 0.00 in0.0 mm 0.00 in0.0 mm 0.00 in0.0 mm
12:03 PM 38.6°F3.7°C 26.1°F-3.3°C 61% 16.0 mph WSW25.7 kmh WSW 21.0 mph33.8 kmh 30.02 in1016.6 mb 0.00 in0.0 mm 0.00 in0.0 mm 0.00 in0.0 mm
12:08 PM 38.6°F3.7°C 26.5°F-3.1°C 62% 17.0 mph WSW27.4 kmh WSW 17.0 mph27.4 kmh 30.02 in1016.6 mb 0.00 in0.0 mm 0.00 in0.0 mm 0.00 in0.0 mm
12:13 PM 38.9°F3.8°C 26.4°F-3.1°C 61% 10.0 mph WSW16.1 kmh WSW 19.0 mph30.6 kmh 30.02 in1016.6 mb 0.00 in0.0 mm 0.00 in0.0 mm 0.00 in0.0 mm
12:18 PM 38.9°F3.8°C 26.4°F-3.1°C 61% 11.0 mph SW17.7 kmh SW 19.0 mph30.6 kmh 30.02 in1016.6 mb 0.00 in0.0 mm 0.00 in0.0 mm 0.00 in0.0 mm
12:23 PM 39.2°F4.0°C 26.7°F-2.9°C 61% 15.0 mph WSW24.1 kmh WSW 20.0 mph32.2 kmh 30.02 in1016.6 mb 0.00 in0.0 mm 0.00 in0.0 mm 0.00 in0.0 mm
12:28 PM 39.4°F4.1°C 26.8°F-2.9°C 61% 8.0 mph WSW12.9 kmh WSW 20.0 mph32.2 kmh 30.02 in1016.6 mb 0.00 in0.0 mm 0.00 in0.0 mm 0.00 in0.0 mm
12:33 PM 39.6°F4.2°C 27.0°F-2.8°C 61% 5.0 mph S8.0 kmh S 20.0 mph32.2 kmh 30.02 in1016.6 mb 0.00 in0.0 mm 0.00 in0.0 mm 0.00 in0.0 mm
12:38 PM 39.8°F4.3°C 26.8°F-2.9°C 60% 4.0 mph WSW6.4 kmh WSW 20.0 mph32.2 kmh 30.01 in1016.3 mb 0.00 in0.0 mm 0.00 in0.0 mm 0.00 in0.0 mm
12:43 PM 39.8°F4.3°C 26.8°F-2.9°C 60% 4.0 mph WSW6.4 kmh WSW 11.0 mph17.7 kmh 30.01 in1016.3 mb 0.00 in0.0 mm 0.00 in0.0 mm 0.00 in0.0 mm
12:48 PM 39.7°F4.3°C 26.7°F-2.9°C 60% 7.0 mph SW11.3 kmh SW 11.0 mph17.7 kmh 30.02 in1016.6 mb 0.00 in0.0 mm 0.00 in0.0 mm 0.00 in0.0 mm
12:53 PM 39.8°F4.3°C 26.8°F-2.9°C 60% 6.0 mph SW9.7 kmh SW 11.0 mph17.7 kmh 30.02 in1016.6 mb 0.00 in0.0 mm 0.00 in0.0 mm 0.00 in0.0 mm
12:58 PM 39.8°F4.3°C 26.8°F-2.9°C 60% 9.0 mph WSW14.5 kmh WSW 11.0 mph17.7 kmh 30.01 in1016.3 mb 0.00 in0.0 mm 0.00 in0.0 mm 0.00 in0.0 mm
01:03 PM 39.9°F4.4°C 26.9°F-2.8°C 60% 5.0 mph WSW8.0 kmh WSW 13.0 mph20.9 kmh 30.01 in1016.3 mb 0.00 in0.0 mm 0.00 in0.0 mm 0.00 in0.0 mm
01:08 PM 40.2°F4.6°C 27.2°F-2.7°C 60% 5.0 mph SW8.0 kmh SW 13.0 mph20.9 kmh 30.01 in1016.3 mb 0.00 in0.0 mm 0.00 in0.0 mm 0.00 in0.0 mm
01:13 PM 40.3°F4.6°C 26.9°F-2.8°C 59% 9.0 mph SW14.5 kmh SW 13.0 mph20.9 kmh 30.01 in1016.3 mb 0.00 in0.0 mm 0.00 in0.0 mm 0.00 in0.0 mm
01:18 PM 40.5°F4.7°C 27.5°F-2.5°C 60% 4.0 mph SW6.4 kmh SW 13.0 mph20.9 kmh 30.01 in1016.3 mb 0.00 in0.0 mm 0.00 in0.0 mm 0.00 in0.0 mm
01:23 PM 40.3°F4.6°C 26.9°F-2.8°C 59% 6.0 mph SSW9.7 kmh SSW 12.0 mph19.3 kmh 30.01 in1016.3 mb 0.00 in0.0 mm 0.00 in0.0 mm 0.00 in0.0 mm
01:28 PM 40.2°F4.6°C 27.2°F-2.7°C 60% 5.0 mph SW8.0 kmh SW 12.0 mph19.3 kmh 30.01 in1016.3 mb 0.00 in0.0 mm 0.00 in0.0 mm 0.00 in0.0 mm
01:33 PM 40.5°F4.7°C 27.0°F-2.8°C 59% 5.0 mph SW8.0 kmh SW 14.0 mph22.5 kmh 30.01 in1016.3 mb 0.00 in0.0 mm 0.00 in0.0 mm 0.00 in0.0 mm
01:38 PM 40.4°F4.7°C 27.4°F-2.6°C 60% 5.0 mph SW8.0 kmh SW 14.0 mph22.5 kmh 30.01 in1016.3 mb 0.00 in0.0 mm 0.00 in0.0 mm 0.00 in0.0 mm
01:43 PM 40.6°F4.8°C 27.6°F-2.4°C 60% 7.0 mph SSW11.3 kmh SSW 14.0 mph22.5 kmh 30.00 in1015.9 mb 0.00 in0.0 mm 0.00 in0.0 mm 0.00 in0.0 mm
01:48 PM 40.6°F4.8°C 27.1°F-2.7°C 59% 5.0 mph SW8.0 kmh SW 14.0 mph22.5 kmh 30.00 in1015.9 mb 0.00 in0.0 mm 0.00 in0.0 mm 0.00 in0.0 mm
01:53 PM 40.7°F4.8°C 27.2°F-2.7°C 59% 5.0 mph SW8.0 kmh SW 13.0 mph20.9 kmh 30.00 in1015.9 mb 0.00 in0.0 mm 0.00 in0.0 mm 0.00 in0.0 mm
02:18 PM 40.5°F4.7°C 27.5°F-2.5°C 60% 7.0 mph SW11.3 kmh SW 15.0 mph24.1 kmh 29.98 in1015.2 mb 0.00 in0.0 mm 0.00 in0.0 mm 0.00 in0.0 mm
02:23 PM 40.6°F4.8°C 27.6°F-2.4°C 60% 3.0 mph SW4.8 kmh SW 16.0 mph25.7 kmh 29.98 in1015.2 mb 0.00 in0.0 mm 0.00 in0.0 mm 0.00 in0.0 mm
02:28 PM 40.8°F4.9°C 27.7°F-2.4°C 60% 7.0 mph WSW11.3 kmh WSW 16.0 mph25.7 kmh 29.98 in1015.2 mb 0.00 in0.0 mm 0.00 in0.0 mm 0.00 in0.0 mm
02:33 PM 40.9°F4.9°C 27.8°F-2.3°C 60% 4.0 mph SW6.4 kmh SW 16.0 mph25.7 kmh 29.99 in1015.6 mb 0.00 in0.0 mm 0.00 in0.0 mm 0.00 in0.0 mm
02:38 PM 40.7°F4.8°C 27.7°F-2.4°C 60% 7.0 mph SW11.3 kmh SW 16.0 mph25.7 kmh 29.98 in1015.2 mb 0.00 in0.0 mm 0.00 in0.0 mm 0.00 in0.0 mm
02:43 PM 40.9°F4.9°C 27.8°F-2.3°C 60% 6.0 mph SW9.7 kmh SW 11.0 mph17.7 kmh 29.99 in1015.6 mb 0.00 in0.0 mm 0.00 in0.0 mm 0.00 in0.0 mm
02:48 PM 41.0°F5.0°C 27.9°F-2.3°C 60% 6.0 mph SSW9.7 kmh SSW 15.0 mph24.1 kmh 29.99 in1015.6 mb 0.00 in0.0 mm 0.00 in0.0 mm 0.00 in0.0 mm
02:53 PM 40.9°F4.9°C 27.8°F-2.3°C 60% 6.0 mph WSW9.7 kmh WSW 15.0 mph24.1 kmh 29.99 in1015.6 mb 0.00 in0.0 mm 0.00 in0.0 mm 0.00 in0.0 mm
02:58 PM 40.9°F4.9°C 27.8°F-2.3°C 60% 10.0 mph SW16.1 kmh SW 15.0 mph24.1 kmh 29.99 in1015.6 mb 0.00 in0.0 mm 0.00 in0.0 mm 0.00 in0.0 mm
03:28 PM 41.2°F5.1°C 28.1°F-2.2°C 60% 7.0 mph SW11.3 kmh SW 13.0 mph20.9 kmh 29.99 in1015.6 mb 0.00 in0.0 mm 0.00 in0.0 mm 0.00 in0.0 mm
03:33 PM 41.2°F5.1°C 28.1°F-2.2°C 60% 3.0 mph WSW4.8 kmh WSW 13.0 mph20.9 kmh 30.00 in1015.9 mb 0.00 in0.0 mm 0.00 in0.0 mm 0.00 in0.0 mm
03:38 PM 41.2°F5.1°C 28.1°F-2.2°C 60% 5.0 mph SW8.0 kmh SW 13.0 mph20.9 kmh 30.00 in1015.9 mb 0.00 in0.0 mm 0.00 in0.0 mm 0.00 in0.0 mm
03:43 PM 41.1°F5.1°C 28.0°F-2.2°C 60% 4.0 mph SW6.4 kmh SW 13.0 mph20.9 kmh 30.00 in1015.9 mb 0.00 in0.0 mm 0.00 in0.0 mm 0.00 in0.0 mm
03:48 PM 41.3°F5.2°C 28.2°F-2.1°C 60% 4.0 mph SW6.4 kmh SW 13.0 mph20.9 kmh 30.00 in1015.9 mb 0.00 in0.0 mm 0.00 in0.0 mm 0.00 in0.0 mm
03:58 PM 41.3°F5.2°C 28.2°F-2.1°C 60% 7.0 mph SW11.3 kmh SW 14.0 mph22.5 kmh 30.00 in1015.9 mb 0.00 in0.0 mm 0.00 in0.0 mm 0.00 in0.0 mm
04:03 PM 41.2°F5.1°C 28.1°F-2.2°C 60% 3.0 mph SSW4.8 kmh SSW 14.0 mph22.5 kmh 30.00 in1015.9 mb 0.00 in0.0 mm 0.00 in0.0 mm 0.00 in0.0 mm
04:08 PM 41.1°F5.1°C 28.0°F-2.2°C 60% 4.0 mph SW6.4 kmh SW 14.0 mph22.5 kmh 30.00 in1015.9 mb 0.00 in0.0 mm 0.00 in0.0 mm 0.00 in0.0 mm
04:13 PM 41.2°F5.1°C 28.1°F-2.2°C 60% 7.0 mph SW11.3 kmh SW 15.0 mph24.1 kmh 30.00 in1015.9 mb 0.00 in0.0 mm 0.00 in0.0 mm 0.00 in0.0 mm
04:18 PM 41.2°F5.1°C 28.5°F-1.9°C 61% 5.0 mph S8.0 kmh S 15.0 mph24.1 kmh 30.00 in1015.9 mb 0.00 in0.0 mm 0.00 in0.0 mm 0.00 in0.0 mm
04:23 PM 41.1°F5.1°C 28.4°F-2.0°C 61% 6.0 mph SW9.7 kmh SW 15.0 mph24.1 kmh 30.00 in1015.9 mb 0.00 in0.0 mm 0.00 in0.0 mm 0.00 in0.0 mm
04:28 PM 41.0°F5.0°C 28.3°F-2.1°C 61% 7.0 mph WSW11.3 kmh WSW 15.0 mph24.1 kmh 30.00 in1015.9 mb 0.00 in0.0 mm 0.00 in0.0 mm 0.00 in0.0 mm
04:33 PM 40.9°F4.9°C 28.3°F-2.1°C 61% 5.0 mph SW8.0 kmh SW 11.0 mph17.7 kmh 30.01 in1016.3 mb 0.00 in0.0 mm 0.00 in0.0 mm 0.00 in0.0 mm
04:38 PM 40.8°F4.9°C 28.6°F-1.9°C 62% 4.0 mph WSW6.4 kmh WSW 11.0 mph17.7 kmh 30.01 in1016.3 mb 0.00 in0.0 mm 0.00 in0.0 mm 0.00 in0.0 mm
04:43 PM 40.9°F4.9°C 28.7°F-1.8°C 62% 3.0 mph SW4.8 kmh SW 11.0 mph17.7 kmh 30.01 in1016.3 mb 0.00 in0.0 mm 0.00 in0.0 mm 0.00 in0.0 mm
04:48 PM 41.0°F5.0°C 28.8°F-1.8°C 62% 5.0 mph SW8.0 kmh SW 11.0 mph17.7 kmh 30.01 in1016.3 mb 0.00 in0.0 mm 0.00 in0.0 mm 0.00 in0.0 mm
04:53 PM 41.1°F5.1°C 28.4°F-2.0°C 61% 4.0 mph SSW6.4 kmh SSW 11.0 mph17.7 kmh 30.02 in1016.6 mb 0.00 in0.0 mm 0.00 in0.0 mm 0.00 in0.0 mm
04:58 PM 41.0°F5.0°C 28.8°F-1.8°C 62% 4.0 mph WSW6.4 kmh WSW 11.0 mph17.7 kmh 30.02 in1016.6 mb 0.00 in0.0 mm 0.00 in0.0 mm 0.00 in0.0 mm
05:03 PM 40.9°F4.9°C 28.7°F-1.8°C 62% 3.0 mph WSW4.8 kmh WSW 14.0 mph22.5 kmh 30.02 in1016.6 mb 0.00 in0.0 mm 0.00 in0.0 mm 0.00 in0.0 mm
05:08 PM 40.9°F4.9°C 28.7°F-1.8°C 62% 3.0 mph SW4.8 kmh SW 14.0 mph22.5 kmh 30.02 in1016.6 mb 0.00 in0.0 mm 0.00 in0.0 mm 0.00 in0.0 mm
05:13 PM 40.8°F4.9°C 28.6°F-1.9°C 62% 2.0 mph SW3.2 kmh SW 14.0 mph22.5 kmh 30.02 in1016.6 mb 0.00 in0.0 mm 0.00 in0.0 mm 0.00 in0.0 mm
05:18 PM 40.8°F4.9°C 28.6°F-1.9°C 62% 3.0 mph WSW4.8 kmh WSW 14.0 mph22.5 kmh 30.02 in1016.6 mb 0.00 in0.0 mm 0.00 in0.0 mm 0.00 in0.0 mm
05:23 PM 40.8°F4.9°C 28.6°F-1.9°C 62% 4.0 mph WSW6.4 kmh WSW 9.0 mph14.5 kmh 30.02 in1016.6 mb 0.00 in0.0 mm 0.00 in0.0 mm 0.00 in0.0 mm
05:28 PM 40.7°F4.8°C 28.5°F-1.9°C 62% 3.0 mph SW4.8 kmh SW 11.0 mph17.7 kmh 30.03 in1016.9 mb 0.00 in0.0 mm 0.00 in0.0 mm 0.00 in0.0 mm
05:33 PM 40.6°F4.8°C 28.4°F-2.0°C 62% 4.0 mph WSW6.4 kmh WSW 11.0 mph17.7 kmh 30.02 in1016.6 mb 0.00 in0.0 mm 0.00 in0.0 mm 0.00 in0.0 mm
05:38 PM 40.5°F4.7°C 28.7°F-1.8°C 63% 4.0 mph WSW6.4 kmh WSW 11.0 mph17.7 kmh 30.02 in1016.6 mb 0.00 in0.0 mm 0.00 in0.0 mm 0.00 in0.0 mm
05:43 PM 40.4°F4.7°C 28.6°F-1.9°C 63% 8.0 mph W12.9 kmh W 13.0 mph20.9 kmh 30.02 in1016.6 mb 0.00 in0.0 mm 0.00 in0.0 mm 0.00 in0.0 mm
05:48 PM 40.3°F4.6°C 28.5°F-1.9°C 63% 7.0 mph SW11.3 kmh SW 13.0 mph20.9 kmh 30.02 in1016.6 mb 0.00 in0.0 mm 0.00 in0.0 mm 0.00 in0.0 mm
05:53 PM 40.2°F4.6°C 28.4°F-2.0°C 63% 4.0 mph SSW6.4 kmh SSW 13.0 mph20.9 kmh 30.03 in1016.9 mb 0.00 in0.0 mm 0.00 in0.0 mm 0.00 in0.0 mm
05:58 PM 40.1°F4.5°C 28.3°F-2.1°C 63% 3.0 mph SW4.8 kmh SW 13.0 mph20.9 kmh 30.03 in1016.9 mb 0.00 in0.0 mm 0.00 in0.0 mm 0.00 in0.0 mm
06:03 PM 40.1°F4.5°C 28.3°F-2.1°C 63% 3.0 mph SW4.8 kmh SW 12.0 mph19.3 kmh 30.03 in1016.9 mb 0.00 in0.0 mm 0.00 in0.0 mm 0.00 in0.0 mm
06:08 PM 40.0°F4.4°C 28.2°F-2.1°C 63% 1.0 mph SW1.6 kmh SW 12.0 mph19.3 kmh 30.03 in1016.9 mb 0.00 in0.0 mm 0.00 in0.0 mm 0.00 in0.0 mm
06:13 PM 40.0°F4.4°C 28.2°F-2.1°C 63% 4.0 mph S6.4 kmh S 12.0 mph19.3 kmh 30.03 in1016.9 mb 0.00 in0.0 mm 0.00 in0.0 mm 0.00 in0.0 mm
06:18 PM 39.9°F4.4°C 28.5°F-1.9°C 64% 2.0 mph WSW3.2 kmh WSW 12.0 mph19.3 kmh 30.03 in1016.9 mb 0.00 in0.0 mm 0.00 in0.0 mm 0.00 in0.0 mm
06:23 PM 39.8°F4.3°C 28.0°F-2.2°C 63% 2.0 mph SW3.2 kmh SW 7.0 mph11.3 kmh 30.04 in1017.3 mb 0.00 in0.0 mm 0.00 in0.0 mm 0.00 in0.0 mm
06:28 PM 39.6°F4.2°C 28.2°F-2.1°C 64% 4.0 mph SW6.4 kmh SW 10.0 mph16.1 kmh 30.04 in1017.3 mb 0.00 in0.0 mm 0.00 in0.0 mm 0.00 in0.0 mm
06:33 PM 39.5°F4.2°C 28.1°F-2.2°C 64% 6.0 mph SSW9.7 kmh SSW 10.0 mph16.1 kmh 30.04 in1017.3 mb 0.00 in0.0 mm 0.00 in0.0 mm 0.00 in0.0 mm
06:38 PM 39.4°F4.1°C 28.0°F-2.2°C 64% 6.0 mph SSW9.7 kmh SSW 10.0 mph16.1 kmh 30.04 in1017.3 mb 0.00 in0.0 mm 0.00 in0.0 mm 0.00 in0.0 mm
06:43 PM 39.3°F4.1°C 28.0°F-2.2°C 64% 3.0 mph SSW4.8 kmh SSW 10.0 mph16.1 kmh 30.04 in1017.3 mb 0.00 in0.0 mm 0.00 in0.0 mm 0.00 in0.0 mm
06:48 PM 39.2°F4.0°C 28.2°F-2.1°C 65% 4.0 mph SW6.4 kmh SW 10.0 mph16.1 kmh 30.05 in1017.6 mb 0.00 in0.0 mm 0.00 in0.0 mm 0.00 in0.0 mm
06:53 PM 39.2°F4.0°C 28.2°F-2.1°C 65% 6.0 mph SSW9.7 kmh SSW 12.0 mph19.3 kmh 30.05 in1017.6 mb 0.00 in0.0 mm 0.00 in0.0 mm 0.00 in0.0 mm
06:58 PM 39.1°F3.9°C 28.2°F-2.1°C 65% 6.0 mph SSW9.7 kmh SSW 12.0 mph19.3 kmh 30.05 in1017.6 mb 0.00 in0.0 mm 0.00 in0.0 mm 0.00 in0.0 mm
07:03 PM 39.1°F3.9°C 28.2°F-2.1°C 65% 4.0 mph SSW6.4 kmh SSW 12.0 mph19.3 kmh 30.05 in1017.6 mb 0.00 in0.0 mm 0.00 in0.0 mm 0.00 in0.0 mm
07:08 PM 39.0°F3.9°C 28.4°F-2.0°C 66% 3.0 mph SW4.8 kmh SW 12.0 mph19.3 kmh 30.05 in1017.6 mb 0.00 in0.0 mm 0.00 in0.0 mm 0.00 in0.0 mm
07:13 PM 39.0°F3.9°C 28.4°F-2.0°C 66% 3.0 mph SW4.8 kmh SW 10.0 mph16.1 kmh 30.05 in1017.6 mb 0.00 in0.0 mm 0.00 in0.0 mm 0.00 in0.0 mm
07:18 PM 38.9°F3.8°C 28.3°F-2.1°C 66% 1.0 mph SW1.6 kmh SW 12.0 mph19.3 kmh 30.06 in1017.9 mb 0.00 in0.0 mm 0.00 in0.0 mm 0.00 in0.0 mm
07:23 PM 38.9°F3.8°C 28.3°F-2.1°C 66% 2.0 mph SW3.2 kmh SW 12.0 mph19.3 kmh 30.05 in1017.6 mb 0.00 in0.0 mm 0.00 in0.0 mm 0.00 in0.0 mm
07:28 PM 38.8°F3.8°C 28.3°F-2.1°C 66% 3.0 mph SW4.8 kmh SW 12.0 mph19.3 kmh 30.06 in1017.9 mb 0.00 in0.0 mm 0.00 in0.0 mm 0.00 in0.0 mm
07:33 PM 38.7°F3.7°C 28.2°F-2.1°C 66% 2.0 mph SW3.2 kmh SW 12.0 mph19.3 kmh 30.06 in1017.9 mb 0.00 in0.0 mm 0.00 in0.0 mm 0.00 in0.0 mm
07:38 PM 38.7°F3.7°C 28.5°F-1.9°C 67% 2.0 mph SW3.2 kmh SW 7.0 mph11.3 kmh 30.06 in1017.9 mb 0.00 in0.0 mm 0.00 in0.0 mm 0.00 in0.0 mm
07:43 PM 38.6°F3.7°C 28.4°F-2.0°C 67% 2.0 mph SW3.2 kmh SW 7.0 mph11.3 kmh 30.06 in1017.9 mb 0.00 in0.0 mm 0.00 in0.0 mm 0.00 in0.0 mm
07:48 PM 38.5°F3.6°C 28.3°F-2.1°C 67% 1.0 mph SW1.6 kmh SW 7.0 mph11.3 kmh 30.06 in1017.9 mb 0.00 in0.0 mm 0.00 in0.0 mm 0.00 in0.0 mm
07:53 PM 38.4°F3.6°C 28.2°F-2.1°C 67% 3.0 mph S4.8 kmh S 7.0 mph11.3 kmh 30.06 in1017.9 mb 0.00 in0.0 mm 0.00 in0.0 mm 0.00 in0.0 mm
07:58 PM 38.3°F3.5°C 28.2°F-2.1°C 67% 2.0 mph SSW3.2 kmh SSW 7.0 mph11.3 kmh 30.06 in1017.9 mb 0.00 in0.0 mm 0.00 in0.0 mm 0.00 in0.0 mm
08:03 PM 38.2°F3.4°C 28.1°F-2.2°C 67% 5.0 mph S8.0 kmh S 6.0 mph9.7 kmh 30.06 in1017.9 mb 0.00 in0.0 mm 0.00 in0.0 mm 0.00 in0.0 mm
08:08 PM 38.1°F3.4°C 28.0°F-2.2°C 67% 5.0 mph SSW8.0 kmh SSW 6.0 mph9.7 kmh 30.06 in1017.9 mb 0.00 in0.0 mm 0.00 in0.0 mm 0.00 in0.0 mm
08:13 PM 38.0°F3.3°C 27.9°F-2.3°C 67% 6.0 mph SSW9.7 kmh SSW 7.0 mph11.3 kmh 30.06 in1017.9 mb 0.00 in0.0 mm 0.00 in0.0 mm 0.00 in0.0 mm
08:18 PM 37.9°F3.3°C 28.1°F-2.2°C 68% 2.0 mph SSW3.2 kmh SSW 7.0 mph11.3 kmh 30.06 in1017.9 mb 0.00 in0.0 mm 0.00 in0.0 mm 0.00 in0.0 mm
08:23 PM 37.8°F3.2°C 28.0°F-2.2°C 68% 4.0 mph SW6.4 kmh SW 7.0 mph11.3 kmh 30.06 in1017.9 mb 0.00 in0.0 mm 0.00 in0.0 mm 0.00 in0.0 mm
08:28 PM 37.6°F3.1°C 27.9°F-2.3°C 68% 1.0 mph SSW1.6 kmh SSW 7.0 mph11.3 kmh 30.07 in1018.3 mb 0.00 in0.0 mm 0.00 in0.0 mm 0.00 in0.0 mm
08:33 PM 37.5°F3.1°C 27.8°F-2.3°C 68% 4.0 mph SW6.4 kmh SW 7.0 mph11.3 kmh 30.07 in1018.3 mb 0.00 in0.0 mm 0.00 in0.0 mm 0.00 in0.0 mm
08:38 PM 37.4°F3.0°C 27.7°F-2.4°C 68% 2.0 mph SW3.2 kmh SW 7.0 mph11.3 kmh 30.07 in1018.3 mb 0.00 in0.0 mm 0.00 in0.0 mm 0.00 in0.0 mm
08:43 PM 37.3°F2.9°C 27.9°F-2.3°C 69% 1.0 mph SSW1.6 kmh SSW 5.0 mph8.0 kmh 30.07 in1018.3 mb 0.00 in0.0 mm 0.00 in0.0 mm 0.00 in0.0 mm
08:48 PM 37.3°F2.9°C 27.9°F-2.3°C 69% 3.0 mph SSW4.8 kmh SSW 6.0 mph9.7 kmh 30.07 in1018.3 mb 0.00 in0.0 mm 0.00 in0.0 mm 0.00 in0.0 mm
08:53 PM 37.2°F2.9°C 27.8°F-2.3°C 69% Calm Calm -- 30.07 in1018.3 mb 0.00 in0.0 mm 0.00 in0.0 mm 0.00 in0.0 mm
08:58 PM 37.2°F2.9°C 27.8°F-2.3°C 69% Calm Calm -- 30.07 in1018.3 mb 0.00 in0.0 mm 0.00 in0.0 mm 0.00 in0.0 mm
09:03 PM 37.1°F2.8°C 27.7°F-2.4°C 69% Calm Calm -- 30.07 in1018.3 mb 0.00 in0.0 mm 0.00 in0.0 mm 0.00 in0.0 mm
09:08 PM 36.9°F2.7°C 27.6°F-2.4°C 69% Calm Calm -- 30.07 in1018.3 mb 0.00 in0.0 mm 0.00 in0.0 mm 0.00 in0.0 mm
09:13 PM 36.7°F2.6°C 27.4°F-2.6°C 69% Calm Calm -- 30.07 in1018.3 mb 0.00 in0.0 mm 0.00 in0.0 mm 0.00 in0.0 mm
09:18 PM 36.5°F2.5°C 27.5°F-2.5°C 70% Calm Calm -- 30.08 in1018.6 mb 0.00 in0.0 mm 0.00 in0.0 mm 0.00 in0.0 mm
09:23 PM 36.3°F2.4°C 27.3°F-2.6°C 70% Calm Calm -- 30.08 in1018.6 mb 0.00 in0.0 mm 0.00 in0.0 mm 0.00 in0.0 mm
09:28 PM 36.1°F2.3°C 27.1°F-2.7°C 70% Calm Calm -- 30.07 in1018.3 mb 0.00 in0.0 mm 0.00 in0.0 mm 0.00 in0.0 mm
09:33 PM 36.0°F2.2°C 27.4°F-2.6°C 71% Calm Calm -- 30.08 in1018.6 mb 0.00 in0.0 mm 0.00 in0.0 mm 0.00 in0.0 mm
09:38 PM 35.9°F2.2°C 27.3°F-2.6°C 71% Calm Calm -- 30.08 in1018.6 mb 0.00 in0.0 mm 0.00 in0.0 mm 0.00 in0.0 mm
09:43 PM 35.8°F2.1°C 27.2°F-2.7°C 71% Calm Calm -- 30.08 in1018.6 mb 0.00 in0.0 mm 0.00 in0.0 mm 0.00 in0.0 mm
09:48 PM 35.6°F2.0°C 27.0°F-2.8°C 71% Calm Calm -- 30.08 in1018.6 mb 0.00 in0.0 mm 0.00 in0.0 mm 0.00 in0.0 mm
09:53 PM 35.5°F1.9°C 27.3°F-2.6°C 72% Calm Calm -- 30.08 in1018.6 mb 0.00 in0.0 mm 0.00 in0.0 mm 0.00 in0.0 mm
09:58 PM 35.5°F1.9°C 27.3°F-2.6°C 72% Calm Calm -- 30.08 in1018.6 mb 0.00 in0.0 mm 0.00 in0.0 mm 0.00 in0.0 mm
10:03 PM 35.6°F2.0°C 27.7°F-2.4°C 73% Calm Calm -- 30.08 in1018.6 mb 0.00 in0.0 mm 0.00 in0.0 mm 0.00 in0.0 mm
10:08 PM 35.7°F2.1°C 27.8°F-2.3°C 73% Calm Calm -- 30.08 in1018.6 mb 0.00 in0.0 mm 0.00 in0.0 mm 0.00 in0.0 mm
10:13 PM 35.9°F2.2°C 28.3°F-2.1°C 74% 2.0 mph SW3.2 kmh SW 7.0 mph11.3 kmh 30.08 in1018.6 mb 0.00 in0.0 mm 0.00 in0.0 mm 0.00 in0.0 mm
10:18 PM 36.2°F2.3°C 28.6°F-1.9°C 74% 3.0 mph WSW4.8 kmh WSW 7.0 mph11.3 kmh 30.08 in1018.6 mb 0.00 in0.0 mm 0.00 in0.0 mm 0.00 in0.0 mm
10:23 PM 36.5°F2.5°C 29.3°F-1.5°C 75% 3.0 mph SSW4.8 kmh SSW 7.0 mph11.3 kmh 30.08 in1018.6 mb 0.00 in0.0 mm 0.00 in0.0 mm 0.00 in0.0 mm
10:28 PM 36.7°F2.6°C 29.5°F-1.4°C 75% 2.0 mph SW3.2 kmh SW 7.0 mph11.3 kmh 30.08 in1018.6 mb 0.00 in0.0 mm 0.00 in0.0 mm 0.00 in0.0 mm
10:33 PM 37.0°F2.8°C 29.7°F-1.3°C 75% 4.0 mph SW6.4 kmh SW 7.0 mph11.3 kmh 30.08 in1018.6 mb 0.00 in0.0 mm 0.00 in0.0 mm 0.00 in0.0 mm
10:38 PM 37.2°F2.9°C 29.9°F-1.2°C 75% 2.0 mph WSW3.2 kmh WSW 7.0 mph11.3 kmh 30.08 in1018.6 mb 0.00 in0.0 mm 0.00 in0.0 mm 0.00 in0.0 mm
10:43 PM 37.4°F3.0°C 30.1°F-1.1°C 75% 1.0 mph SW1.6 kmh SW 7.0 mph11.3 kmh 30.08 in1018.6 mb 0.00 in0.0 mm 0.00 in0.0 mm 0.00 in0.0 mm
10:48 PM 37.6°F3.1°C 30.3°F-0.9°C 75% Calm Calm 5.0 mph8.0 kmh 30.07 in1018.3 mb 0.00 in0.0 mm 0.00 in0.0 mm 0.00 in0.0 mm
10:53 PM 37.8°F3.2°C 30.8°F-0.7°C 76% Calm Calm -- 30.07 in1018.3 mb 0.00 in0.0 mm 0.00 in0.0 mm 0.00 in0.0 mm
10:58 PM 37.9°F3.3°C 30.9°F-0.6°C 76% Calm Calm -- 30.08 in1018.6 mb 0.00 in0.0 mm 0.00 in0.0 mm 0.00 in0.0 mm
11:03 PM 38.0°F3.3°C 31.0°F-0.6°C 76% Calm Calm -- 30.08 in1018.6 mb 0.00 in0.0 mm 0.00 in0.0 mm 0.00 in0.0 mm
11:08 PM 38.1°F3.4°C 31.1°F-0.5°C 76% Calm Calm -- 30.08 in1018.6 mb 0.00 in0.0 mm 0.00 in0.0 mm 0.00 in0.0 mm
11:13 PM 38.2°F3.4°C 31.6°F-0.2°C 77% Calm Calm -- 30.08 in1018.6 mb 0.00 in0.0 mm 0.00 in0.0 mm 0.00 in0.0 mm
11:18 PM 38.2°F3.4°C 31.6°F-0.2°C 77% Calm Calm -- 30.08 in1018.6 mb 0.00 in0.0 mm 0.00 in0.0 mm 0.00 in0.0 mm
11:23 PM 38.3°F3.5°C 31.7°F-0.2°C 77% Calm Calm 1.0 mph1.6 kmh 30.09 in1019.0 mb 0.00 in0.0 mm 0.00 in0.0 mm 0.00 in0.0 mm
11:28 PM 38.3°F3.5°C 31.7°F-0.2°C 77% Calm Calm -- 30.09 in1019.0 mb 0.00 in0.0 mm 0.00 in0.0 mm 0.00 in0.0 mm
11:33 PM 38.4°F3.6°C 32.1°F0.1°C 78% Calm Calm -- 30.09 in1019.0 mb 0.00 in0.0 mm 0.00 in0.0 mm 0.00 in0.0 mm
11:38 PM 38.5°F3.6°C 32.2°F0.1°C 78% Calm Calm -- 30.09 in1019.0 mb 0.00 in0.0 mm 0.00 in0.0 mm 0.00 in0.0 mm
11:43 PM 38.5°F3.6°C 32.2°F0.1°C 78% Calm Calm -- 30.09 in1019.0 mb 0.00 in0.0 mm 0.00 in0.0 mm 0.00 in0.0 mm
11:48 PM 38.5°F3.6°C 32.2°F0.1°C 78% Calm Calm -- 30.09 in1019.0 mb 0.00 in0.0 mm 0.00 in0.0 mm 0.00 in0.0 mm
11:53 PM 38.6°F3.7°C 32.3°F0.2°C 78% Calm Calm -- 30.09 in1019.0 mb 0.00 in0.0 mm 0.00 in0.0 mm 0.00 in0.0 mm
11:58 PM 38.6°F3.7°C 32.3°F0.2°C 78% Calm Calm -- 30.09 in1019.0 mb 0.00 in0.0 mm 0.00 in0.0 mm 0.00 in0.0 mm